KMVL/MVL METAR and TAF weather

Enter ICAO airport designator
Station Type Date Time Source
KMVL METAR 2024/04/15 07:54 UTC NOAA

KMVL 150754Z AUTO 21004KT 4SM BR OVC002 03/02 A2969 RMK AO2 SLP060 T00330022


Station Type Date Time Source
KMVL Decoded METAR 2024/04/15 07:54 UTC NOAA

MORRISVILLE STOWE STATE AIRPORT , VT, United States (KMVL) 44-32N 72-37W 223M
Apr 15, 2024 - 03:54 AM EDT / 2024.04.15 0754 UTC
Wind: from the SSW (210 degrees) at 5 MPH (4 KT):0
Visibility: 4 mile(s):0
Sky conditions: overcast
Weather: mist
Temperature: 37.9 F (3.3 C)
Dew Point: 36.0 F (2.2 C)
Relative Humidity: 92%
Pressure (altimeter): 29.69 in. Hg (1005 hPa)
ob: KMVL 150754Z AUTO 21004KT 4SM BR OVC002 03/02 A2969 RMK AO2 SLP060 T00330022
cycle: 8

Station Type Date Time Source
KMVL TAF UTC NOAA

Error!

Example: see airport list